createdAt,value
2023-05-14T00:03:43.965Z,100.00
2023-05-14T00:07:46.992Z,100.00
2023-05-14T00:11:51.247Z,100.00
2023-05-14T00:15:54.170Z,100.00
2023-05-14T00:19:57.078Z,100.00
2023-05-14T00:23:59.957Z,100.00
2023-05-14T00:28:04.218Z,100.00
2023-05-14T00:32:07.588Z,100.00
2023-05-14T00:36:10.935Z,100.00
2023-05-14T00:40:14.197Z,100.00
2023-05-14T00:44:18.427Z,100.00
2023-05-14T00:48:21.904Z,100.00
2023-05-14T00:52:25.074Z,100.00
2023-05-14T00:56:29.170Z,100.00
2023-05-14T01:00:33.460Z,100.00
2023-05-14T01:04:36.486Z,100.00
2023-05-14T01:08:44.092Z,100.00
2023-05-14T01:12:51.781Z,100.00
2023-05-14T01:16:58.853Z,100.00
2023-05-14T01:21:02.871Z,100.00
2023-05-14T01:25:08.057Z,100.00
2023-05-14T01:29:14.995Z,100.00
2023-05-14T01:33:19.220Z,100.00
2023-05-14T01:37:22.868Z,100.00
2023-05-14T01:41:27.613Z,100.00
2023-05-14T01:45:31.180Z,100.00
2023-05-14T01:49:34.068Z,100.00
2023-05-14T01:53:36.931Z,100.00
2023-05-14T01:57:41.508Z,100.00
2023-05-14T02:01:44.647Z,100.00
2023-05-14T02:05:47.885Z,100.00
2023-05-14T02:09:50.785Z,100.00
2023-05-14T02:13:55.065Z,100.00
2023-05-14T02:17:58.000Z,100.00
2023-05-14T02:22:01.125Z,100.00
2023-05-14T02:26:04.031Z,100.00
2023-05-14T02:30:09.075Z,100.00
2023-05-14T02:34:12.396Z,100.00
2023-05-14T02:38:15.265Z,100.00
2023-05-14T02:42:18.130Z,100.00
2023-05-14T02:46:22.389Z,100.00
2023-05-14T02:50:27.058Z,100.00
2023-05-14T02:54:29.935Z,100.00
2023-05-14T02:58:32.833Z,100.00
2023-05-14T03:02:37.226Z,100.00
2023-05-14T03:06:40.771Z,100.00
2023-05-14T03:10:43.902Z,100.00
2023-05-14T03:14:46.772Z,100.00
2023-05-14T03:18:51.077Z,100.00
2023-05-14T03:22:54.522Z,100.00
2023-05-14T03:26:57.412Z,100.00
2023-05-14T03:31:00.283Z,100.00
2023-05-14T03:35:04.638Z,100.00
2023-05-14T03:39:09.554Z,100.00
2023-05-14T03:43:12.533Z,100.00
2023-05-14T03:47:15.627Z,100.00
2023-05-14T03:51:19.980Z,100.00
2023-05-14T03:55:22.969Z,100.00
2023-05-14T03:59:25.809Z,100.00
2023-05-14T04:03:29.983Z,100.00
2023-05-14T04:07:34.641Z,100.00
2023-05-14T04:11:37.560Z,100.00
2023-05-14T04:15:40.421Z,100.00
2023-05-14T04:19:43.749Z,100.00
2023-05-14T04:23:47.941Z,100.00
2023-05-14T04:27:50.945Z,100.00
2023-05-14T04:31:54.730Z,100.00
2023-05-14T04:35:57.675Z,100.00
2023-05-14T04:40:02.057Z,100.00
2023-05-14T04:44:05.199Z,100.00
2023-05-14T04:48:08.711Z,100.00
2023-05-14T04:52:11.701Z,100.00
2023-05-14T04:56:15.948Z,100.00
2023-05-14T05:00:19.257Z,100.00
2023-05-14T05:04:23.942Z,100.00
2023-05-14T05:08:27.310Z,100.00
2023-05-14T05:12:31.539Z,100.00
2023-05-14T05:16:34.838Z,100.00
2023-05-14T05:20:37.747Z,100.00
2023-05-14T05:24:40.600Z,100.00
2023-05-14T05:28:44.885Z,100.00
2023-05-14T05:32:48.189Z,100.00
2023-05-14T05:36:51.259Z,100.00
2023-05-14T05:40:54.146Z,100.00
2023-05-14T05:44:58.353Z,100.00
2023-05-14T05:49:01.233Z,100.00
2023-05-14T05:53:04.128Z,100.00
2023-05-14T05:57:07.131Z,100.00
2023-05-14T06:01:13.293Z,100.00
2023-05-14T06:05:16.925Z,100.00
2023-05-14T06:09:19.853Z,100.00
2023-05-14T06:13:22.713Z,100.00
2023-05-14T06:17:27.252Z,100.00
2023-05-14T06:21:30.141Z,100.00
2023-05-14T06:25:32.978Z,100.00
2023-05-14T06:29:35.871Z,100.00
2023-05-14T06:33:40.079Z,100.00
2023-05-14T06:37:42.923Z,100.00
2023-05-14T06:41:45.772Z,100.00
2023-05-14T06:45:51.367Z,100.00
2023-05-14T06:49:56.999Z,100.00
2023-05-14T06:53:59.855Z,100.00
2023-05-14T06:58:02.796Z,100.00
2023-05-14T07:02:05.683Z,100.00
2023-05-14T07:06:10.866Z,100.00
2023-05-14T07:10:15.364Z,100.00
2023-05-14T07:14:18.349Z,100.00
2023-05-14T07:18:21.318Z,100.00
2023-05-14T07:22:25.785Z,100.00
2023-05-14T07:26:28.746Z,100.00
2023-05-14T07:30:31.585Z,100.00
2023-05-14T07:34:34.696Z,100.00
2023-05-14T07:38:39.028Z,100.00
2023-05-14T07:42:41.938Z,100.00
2023-05-14T07:46:44.793Z,100.00
2023-05-14T07:50:47.929Z,100.00
2023-05-14T07:54:52.664Z,100.00
2023-05-14T07:58:56.042Z,100.00
2023-05-14T08:02:59.202Z,100.00
2023-05-14T08:07:02.351Z,100.00
2023-05-14T08:11:06.766Z,100.00
2023-05-14T08:15:10.194Z,100.00
2023-05-14T08:19:13.673Z,100.00
2023-05-14T08:23:16.770Z,100.00
2023-05-14T08:27:21.673Z,100.00
2023-05-14T08:31:24.669Z,100.00
2023-05-14T08:35:27.624Z,100.00
2023-05-14T08:39:30.674Z,100.00
2023-05-14T08:43:39.362Z,100.00
2023-05-14T08:47:42.333Z,100.00
2023-05-14T08:51:45.878Z,100.00
2023-05-14T08:55:48.857Z,100.00
2023-05-14T08:59:53.200Z,100.00
2023-05-14T09:03:56.249Z,100.00
2023-05-14T09:07:59.244Z,100.00
2023-05-14T09:12:02.213Z,100.00
2023-05-14T09:16:06.966Z,100.00
2023-05-14T09:20:10.710Z,100.00
2023-05-14T09:24:19.783Z,100.00
2023-05-14T09:28:24.453Z,100.00
2023-05-14T09:32:36.111Z,100.00
2023-05-14T09:36:39.406Z,100.00
2023-05-14T09:40:42.816Z,100.00
2023-05-14T09:44:47.236Z,100.00
2023-05-14T09:48:51.544Z,100.00
2023-05-14T09:52:56.224Z,100.00
2023-05-14T09:56:59.541Z,100.00
2023-05-14T10:01:02.913Z,100.00
2023-05-14T10:05:08.487Z,100.00
2023-05-14T10:09:13.445Z,100.00
2023-05-14T10:13:20.646Z,100.00
2023-05-14T10:17:27.376Z,100.00
2023-05-14T10:21:33.357Z,100.00
2023-05-14T10:25:37.129Z,100.00
2023-05-14T10:29:42.423Z,100.00
2023-05-14T10:33:50.511Z,100.00
2023-05-14T10:37:55.254Z,100.00
2023-05-14T10:41:58.593Z,100.00
2023-05-14T10:46:03.191Z,100.00
2023-05-14T10:50:07.976Z,100.00
2023-05-14T10:54:13.676Z,100.00
2023-05-14T10:58:17.153Z,84.41
2023-05-14T11:02:21.852Z,68.06
2023-05-14T11:06:27.535Z,97.70
2023-05-14T11:10:32.209Z,99.46
2023-05-14T11:14:35.316Z,82.02
2023-05-14T11:18:39.047Z,60.11
2023-05-14T11:22:43.372Z,66.71
2023-05-14T11:26:47.959Z,70.75
2023-05-14T11:30:51.217Z,76.02
2023-05-14T11:34:54.693Z,64.18
2023-05-14T11:38:58.015Z,58.99
2023-05-14T11:43:02.774Z,55.26
2023-05-14T11:47:08.662Z,65.42
2023-05-14T11:51:11.759Z,63.83
2023-05-14T11:55:15.007Z,56.72
2023-05-14T11:59:19.901Z,63.46
2023-05-14T12:03:26.506Z,71.48
2023-05-14T12:07:30.495Z,49.01
2023-05-14T12:11:33.747Z,50.57
2023-05-14T12:15:38.096Z,44.87
2023-05-14T12:19:42.691Z,45.75
2023-05-14T12:23:45.697Z,41.56
2023-05-14T12:27:48.969Z,47.18
2023-05-14T12:31:53.575Z,43.56
2023-05-14T12:36:07.365Z,47.91
2023-05-14T12:40:17.263Z,53.01
2023-05-14T12:44:22.684Z,50.17
2023-05-14T12:48:27.458Z,51.12
2023-05-14T12:52:37.803Z,47.50
2023-05-14T12:56:42.642Z,41.59
2023-05-14T13:00:45.752Z,42.25
2023-05-14T13:04:50.092Z,43.31
2023-05-14T13:08:53.392Z,42.68
2023-05-14T13:12:56.642Z,43.45
2023-05-14T13:17:00.525Z,45.23
2023-05-14T13:21:06.752Z,44.05
2023-05-14T13:25:10.785Z,45.26
2023-05-14T13:29:13.729Z,47.57
2023-05-14T13:33:16.610Z,45.28
2023-05-14T13:37:21.113Z,43.75
2023-05-14T13:41:24.107Z,44.13
2023-05-14T13:45:27.220Z,42.78
2023-05-14T13:49:30.624Z,41.31
2023-05-14T13:53:35.321Z,43.04
2023-05-14T13:57:39.947Z,40.86
2023-05-14T14:01:43.812Z,44.33
2023-05-14T14:05:47.172Z,42.94
2023-05-14T14:09:52.081Z,45.14
2023-05-14T14:13:55.395Z,43.83
2023-05-14T14:17:58.597Z,42.48
2023-05-14T14:22:02.023Z,41.26
2023-05-14T14:26:06.570Z,42.75
2023-05-14T14:30:15.554Z,41.20
2023-05-14T14:34:18.632Z,45.52
2023-05-14T14:38:21.861Z,50.47
2023-05-14T14:42:26.504Z,46.75
2023-05-14T14:46:29.637Z,44.03
2023-05-14T14:50:32.858Z,42.03
2023-05-14T14:54:36.554Z,42.95
2023-05-14T14:58:41.018Z,43.88
2023-05-14T15:02:45.169Z,42.23
2023-05-14T15:06:48.543Z,46.20
2023-05-14T15:10:51.892Z,46.85
2023-05-14T15:14:56.574Z,47.27
2023-05-14T15:18:59.760Z,51.19
2023-05-14T15:23:02.940Z,48.39
2023-05-14T15:27:06.187Z,51.81
2023-05-14T15:31:10.633Z,48.91
2023-05-14T15:35:13.762Z,51.60
2023-05-14T15:39:17.188Z,48.83
2023-05-14T15:43:20.538Z,51.43
2023-05-14T15:47:25.902Z,52.88
2023-05-14T15:51:28.908Z,50.57
2023-05-14T15:55:32.289Z,49.27
2023-05-14T15:59:35.689Z,49.97
2023-05-14T16:03:40.121Z,54.01
2023-05-14T16:07:43.723Z,52.13
2023-05-14T16:11:46.892Z,51.79
2023-05-14T16:15:50.220Z,50.98
2023-05-14T16:19:56.250Z,51.82
2023-05-14T16:23:59.864Z,49.84
2023-05-14T16:28:03.052Z,49.42
2023-05-14T16:32:06.539Z,47.31
2023-05-14T16:36:11.207Z,53.09
2023-05-14T16:40:16.180Z,53.78
2023-05-14T16:44:19.296Z,54.21
2023-05-14T16:48:23.955Z,57.18
2023-05-14T16:52:28.648Z,58.66
2023-05-14T16:56:32.473Z,58.76
2023-05-14T17:00:35.745Z,56.54
2023-05-14T17:04:42.496Z,57.48
2023-05-14T17:08:47.577Z,60.29
2023-05-14T17:12:50.873Z,61.82
2023-05-14T17:16:55.673Z,61.08
2023-05-14T17:20:59.028Z,65.52
2023-05-14T17:25:03.639Z,66.07
2023-05-14T17:29:07.519Z,70.39
2023-05-14T17:33:11.715Z,73.76
2023-05-14T17:37:15.308Z,74.41
2023-05-14T17:41:19.839Z,79.93
2023-05-14T17:45:23.206Z,84.67
2023-05-14T17:49:26.521Z,87.40
2023-05-14T17:53:30.254Z,93.48
2023-05-14T17:57:35.148Z,96.74
2023-05-14T18:01:38.076Z,98.38
2023-05-14T18:05:41.018Z,99.15
2023-05-14T18:09:44.072Z,100.00
2023-05-14T18:13:48.914Z,100.00
2023-05-14T18:17:53.025Z,100.00
2023-05-14T18:21:56.370Z,100.00
2023-05-14T18:25:59.583Z,100.00
2023-05-14T18:30:04.306Z,100.00
2023-05-14T18:34:07.966Z,100.00
2023-05-14T18:38:12.090Z,100.00
2023-05-14T18:42:16.852Z,100.00
2023-05-14T18:46:21.779Z,100.00
2023-05-14T18:50:24.934Z,100.00
2023-05-14T18:54:28.091Z,100.00
2023-05-14T18:58:31.443Z,100.00
2023-05-14T19:02:36.468Z,100.00
2023-05-14T19:06:40.485Z,100.00
2023-05-14T19:10:43.945Z,100.00
2023-05-14T19:14:47.088Z,100.00
2023-05-14T19:18:51.944Z,100.00
2023-05-14T19:22:55.800Z,100.00
2023-05-14T19:26:59.551Z,100.00
2023-05-14T19:31:02.777Z,100.00
2023-05-14T19:35:07.702Z,100.00
2023-05-14T19:39:10.979Z,100.00
2023-05-14T19:43:14.144Z,100.00
2023-05-14T19:47:17.426Z,100.00
2023-05-14T19:51:25.536Z,100.00
2023-05-14T19:55:28.582Z,100.00
2023-05-14T19:59:31.684Z,100.00
2023-05-14T20:03:34.895Z,100.00
2023-05-14T20:07:40.551Z,100.00
2023-05-14T20:11:43.753Z,100.00
2023-05-14T20:15:46.796Z,100.00
2023-05-14T20:19:49.733Z,100.00
2023-05-14T20:23:54.546Z,100.00
2023-05-14T20:27:57.663Z,100.00
2023-05-14T20:32:00.753Z,100.00
2023-05-14T20:36:04.534Z,100.00
2023-05-14T20:40:12.429Z,100.00
2023-05-14T20:44:16.786Z,100.00
2023-05-14T20:48:22.150Z,100.00
2023-05-14T20:52:25.340Z,100.00
2023-05-14T20:56:30.560Z,100.00
2023-05-14T21:00:33.833Z,100.00
2023-05-14T21:04:37.229Z,100.00
2023-05-14T21:08:40.569Z,100.00
2023-05-14T21:12:45.163Z,100.00
2023-05-14T21:16:48.330Z,100.00
2023-05-14T21:20:51.748Z,100.00
2023-05-14T21:24:55.643Z,100.00
2023-05-14T21:29:00.402Z,100.00
2023-05-14T21:33:03.576Z,100.00
2023-05-14T21:37:07.816Z,100.00
2023-05-14T21:41:10.949Z,100.00
2023-05-14T21:45:15.808Z,100.00
2023-05-14T21:49:19.031Z,100.00
2023-05-14T21:53:24.374Z,100.00
2023-05-14T21:57:28.637Z,100.00
2023-05-14T22:01:38.568Z,100.00
2023-05-14T22:05:49.361Z,100.00
2023-05-14T22:09:52.917Z,100.00
2023-05-14T22:13:56.244Z,100.00
2023-05-14T22:18:00.732Z,100.00
2023-05-14T22:22:03.948Z,100.00
2023-05-14T22:26:07.303Z,100.00
2023-05-14T22:30:10.630Z,100.00
2023-05-14T22:34:15.045Z,100.00
2023-05-14T22:38:20.375Z,100.00
2023-05-14T22:42:24.104Z,100.00
2023-05-14T22:46:27.339Z,100.00
2023-05-14T22:50:31.714Z,100.00
2023-05-14T22:54:34.787Z,100.00
2023-05-14T22:58:37.698Z,100.00
2023-05-14T23:02:40.853Z,100.00
2023-05-14T23:06:45.714Z,100.00
2023-05-14T23:10:48.752Z,100.00
2023-05-14T23:14:51.918Z,100.00
2023-05-14T23:18:55.218Z,100.00
2023-05-14T23:22:59.726Z,100.00
2023-05-14T23:27:03.417Z,100.00
2023-05-14T23:31:06.558Z,100.00
2023-05-14T23:35:09.710Z,100.00
2023-05-14T23:39:14.110Z,100.00
2023-05-14T23:43:17.278Z,100.00
2023-05-14T23:47:20.621Z,100.00
2023-05-14T23:51:24.279Z,100.00
2023-05-14T23:55:29.349Z,100.00
2023-05-14T23:59:32.412Z,100.00
